createdAt,value
2022-09-12T00:04:55.175Z,11.92
2022-09-12T00:09:56.491Z,11.89
2022-09-12T00:14:57.840Z,11.92
2022-09-12T00:19:59.584Z,11.82
2022-09-12T00:25:00.935Z,11.71
2022-09-12T00:30:02.341Z,11.84
2022-09-12T00:35:04.084Z,11.60
2022-09-12T00:40:05.651Z,11.56
2022-09-12T00:45:18.941Z,11.53
2022-09-12T00:50:20.453Z,11.50
2022-09-12T00:55:27.815Z,11.51
2022-09-12T01:00:29.690Z,11.48
2022-09-12T01:05:32.748Z,11.41
2022-09-12T01:10:38.441Z,11.31
2022-09-12T01:15:40.346Z,11.14
2022-09-12T01:21:01.003Z,11.09
2022-09-12T01:26:15.461Z,11.05
2022-09-12T01:31:34.697Z,11.14
2022-09-12T01:36:54.250Z,10.96
2022-09-12T01:42:10.164Z,10.83
2022-09-12T01:47:15.720Z,10.93
2022-09-12T01:52:27.345Z,10.81
2022-09-12T01:57:37.149Z,10.80
2022-09-12T02:02:38.406Z,10.73
2022-09-12T02:07:42.384Z,10.67
2022-09-12T02:12:50.778Z,10.64
2022-09-12T02:17:53.173Z,10.67
2022-09-12T02:22:56.209Z,10.64
2022-09-12T02:28:09.858Z,10.58
2022-09-12T02:33:11.221Z,10.50
2022-09-12T02:38:18.387Z,10.46
2022-09-12T02:43:19.743Z,10.48
2022-09-12T02:48:23.785Z,10.36
2022-09-12T02:53:26.033Z,10.40
2022-09-12T02:58:29.750Z,10.37
2022-09-12T03:03:46.442Z,10.33
2022-09-12T03:09:00.340Z,10.38
2022-09-12T03:14:04.914Z,10.25
2022-09-12T03:19:06.235Z,10.17
2022-09-12T03:24:43.189Z,10.20
2022-09-12T03:29:46.250Z,10.20
2022-09-12T03:34:47.741Z,10.23
2022-09-12T03:39:49.112Z,10.04
2022-09-12T03:44:50.466Z,10.11
2022-09-12T03:49:52.524Z,10.05
2022-09-12T03:54:53.835Z,10.04
2022-09-12T03:59:55.163Z,10.05
2022-09-12T04:04:56.661Z,10.03
2022-09-12T04:09:58.011Z,10.08
2022-09-12T04:14:59.340Z,10.15
2022-09-12T04:20:00.759Z,10.08
2022-09-12T04:25:02.404Z,10.04
2022-09-12T04:30:04.104Z,10.11
2022-09-12T04:35:05.529Z,10.04
2022-09-12T04:40:07.338Z,10.07
2022-09-12T04:45:08.803Z,10.03
2022-09-12T04:50:10.116Z,10.04
2022-09-12T04:55:11.579Z,10.08
2022-09-12T05:00:13.489Z,10.08
2022-09-12T05:05:14.882Z,10.08
2022-09-12T05:10:18.629Z,10.07
2022-09-12T05:15:19.992Z,10.12
2022-09-12T05:20:30.187Z,10.18
2022-09-12T05:25:31.570Z,10.21
2022-09-12T05:30:34.338Z,10.22
2022-09-12T05:35:40.632Z,10.27
2022-09-12T05:40:41.915Z,10.37
2022-09-12T05:45:43.394Z,10.43
2022-09-12T05:50:44.744Z,10.48
2022-09-12T05:55:46.085Z,10.46
2022-09-12T06:00:48.000Z,10.69
2022-09-12T06:05:50.744Z,10.74
2022-09-12T06:10:52.192Z,10.84
2022-09-12T06:15:54.229Z,11.01
2022-09-12T06:20:55.560Z,11.06
2022-09-12T06:25:57.104Z,11.09
2022-09-12T06:31:02.302Z,11.13
2022-09-12T06:36:06.969Z,11.35
2022-09-12T06:41:12.419Z,11.46
2022-09-12T06:46:13.810Z,11.56
2022-09-12T06:51:16.370Z,11.43
2022-09-12T06:56:19.221Z,11.58
2022-09-12T07:01:21.684Z,12.29
2022-09-12T07:06:24.456Z,13.06
2022-09-12T07:11:26.645Z,13.49
2022-09-12T07:16:28.357Z,13.67
2022-09-12T07:21:30.069Z,13.72
2022-09-12T07:26:31.784Z,13.85
2022-09-12T07:31:33.097Z,14.39
2022-09-12T07:36:34.607Z,14.57
2022-09-12T07:41:35.897Z,14.78
2022-09-12T07:46:37.206Z,14.94
2022-09-12T07:51:38.499Z,14.76
2022-09-12T07:56:40.787Z,14.82
2022-09-12T08:01:42.313Z,15.20
2022-09-12T08:06:43.700Z,15.44
2022-09-12T08:11:45.018Z,15.27
2022-09-12T08:16:46.337Z,15.52
2022-09-12T08:21:47.664Z,15.82
2022-09-12T08:26:49.279Z,16.21
2022-09-12T08:31:55.181Z,16.34
2022-09-12T08:36:58.470Z,16.26
2022-09-12T08:42:05.442Z,16.49
2022-09-12T08:47:17.119Z,17.04
2022-09-12T08:52:30.865Z,16.83
2022-09-12T08:57:33.325Z,17.34
2022-09-12T09:02:58.923Z,17.07
2022-09-12T09:08:10.707Z,17.54
2022-09-12T09:13:40.024Z,17.64
2022-09-12T09:18:43.725Z,17.90
2022-09-12T09:23:48.340Z,18.02
2022-09-12T09:29:02.592Z,18.19
2022-09-12T09:34:09.223Z,18.52
2022-09-12T09:39:10.657Z,18.81
2022-09-12T09:44:12.056Z,18.92
2022-09-12T09:49:14.702Z,19.11
2022-09-12T09:54:28.251Z,19.66
2022-09-12T09:59:33.858Z,19.72
2022-09-12T10:04:41.587Z,19.99
2022-09-12T10:10:02.947Z,20.46
2022-09-12T10:15:15.810Z,20.52
2022-09-12T10:20:29.322Z,20.52
2022-09-12T10:25:31.229Z,20.87
2022-09-12T10:30:32.803Z,21.19
2022-09-12T10:35:43.643Z,21.69
2022-09-12T10:40:44.968Z,22.57
2022-09-12T10:45:46.430Z,22.35
2022-09-12T10:50:47.761Z,22.19
2022-09-12T10:56:07.387Z,22.35
2022-09-12T11:01:25.184Z,22.13
2022-09-12T11:06:34.478Z,22.34
2022-09-12T11:11:44.996Z,22.62
2022-09-12T11:16:55.070Z,22.74
2022-09-12T11:22:08.698Z,23.47
2022-09-12T11:27:28.558Z,23.56
2022-09-12T11:32:42.311Z,23.97
2022-09-12T11:37:51.226Z,23.37
2022-09-12T11:42:53.747Z,23.38
2022-09-12T11:47:58.098Z,23.74
2022-09-12T11:53:20.290Z,23.20
2022-09-12T11:58:24.722Z,24.04
2022-09-12T12:03:37.107Z,23.89
2022-09-12T12:08:42.870Z,23.57
2022-09-12T12:13:51.328Z,23.85
2022-09-12T12:18:57.419Z,23.60
2022-09-12T12:24:08.008Z,24.17
2022-09-12T12:29:19.364Z,23.60
2022-09-12T12:34:26.305Z,23.73
2022-09-12T12:39:33.776Z,23.68
2022-09-12T12:44:44.250Z,23.54
2022-09-12T12:49:53.294Z,23.50
2022-09-12T12:54:58.863Z,23.49
2022-09-12T13:00:03.794Z,23.48
2022-09-12T13:05:07.931Z,23.38
2022-09-12T13:10:20.870Z,23.40
2022-09-12T13:15:37.361Z,23.65
2022-09-12T13:20:51.581Z,23.68
2022-09-12T13:25:57.531Z,23.46
2022-09-12T13:30:59.009Z,23.49
2022-09-12T13:36:08.575Z,23.33
2022-09-12T13:41:25.343Z,23.22
2022-09-12T13:46:30.180Z,23.45
2022-09-12T13:51:32.435Z,23.68
2022-09-12T13:56:33.737Z,23.60
2022-09-12T14:01:39.703Z,23.28
2022-09-12T14:06:51.586Z,23.12
2022-09-12T14:11:52.970Z,23.01
2022-09-12T14:16:54.797Z,23.20
2022-09-12T14:21:57.484Z,23.48
2022-09-12T14:26:59.469Z,23.09
2022-09-12T14:32:02.777Z,23.20
2022-09-12T14:37:06.428Z,23.24
2022-09-12T14:42:18.890Z,23.36
2022-09-12T14:47:22.501Z,23.23
2022-09-12T14:52:34.715Z,23.07
2022-09-12T14:57:39.304Z,23.23
2022-09-12T15:02:42.056Z,22.94
2022-09-12T15:07:48.011Z,22.97
2022-09-12T15:12:49.424Z,22.92
2022-09-12T15:17:50.995Z,22.85
2022-09-12T15:22:52.686Z,22.79
2022-09-12T15:27:55.941Z,22.73
2022-09-12T15:32:59.956Z,22.71
2022-09-12T15:38:01.233Z,22.63
2022-09-12T15:43:03.095Z,22.75
2022-09-12T15:48:04.612Z,22.71
2022-09-12T15:53:05.985Z,22.71
2022-09-12T15:58:07.739Z,22.91
2022-09-12T16:03:23.080Z,22.83
2022-09-12T16:08:25.051Z,22.90
2022-09-12T16:13:26.673Z,22.77
2022-09-12T16:18:28.055Z,22.69
2022-09-12T16:23:29.387Z,22.66
2022-09-12T16:28:32.603Z,22.49
2022-09-12T16:33:34.635Z,22.42
2022-09-12T16:38:40.785Z,22.31
2022-09-12T16:43:42.981Z,22.23
2022-09-12T16:48:50.919Z,22.17
2022-09-12T16:53:52.519Z,21.99
2022-09-12T16:58:54.108Z,21.84
2022-09-12T17:03:56.539Z,21.74
2022-09-12T17:09:00.751Z,21.69
2022-09-12T17:14:05.317Z,21.61
2022-09-12T17:19:08.089Z,21.42
2022-09-12T17:24:09.503Z,21.43
2022-09-12T17:29:11.451Z,21.21
2022-09-12T17:34:14.474Z,21.24
2022-09-12T17:39:15.975Z,20.89
2022-09-12T17:44:18.569Z,20.73
2022-09-12T17:49:21.969Z,20.24
2022-09-12T17:54:24.419Z,20.01
2022-09-12T17:59:25.781Z,19.93
2022-09-12T18:04:27.735Z,19.64
2022-09-12T18:09:29.215Z,19.52
2022-09-12T18:14:30.683Z,19.49
2022-09-12T18:19:32.201Z,19.30
2022-09-12T18:24:33.545Z,19.19
2022-09-12T18:29:34.882Z,19.06
2022-09-12T18:34:36.482Z,19.02
2022-09-12T18:39:38.480Z,18.93
2022-09-12T18:44:40.315Z,18.62
2022-09-12T18:49:41.777Z,18.45
2022-09-12T18:54:43.273Z,18.33
2022-09-12T18:59:44.570Z,18.23
2022-09-12T19:04:45.960Z,18.09
2022-09-12T19:09:47.461Z,18.09
2022-09-12T19:14:50.732Z,17.93
2022-09-12T19:19:52.054Z,17.80
2022-09-12T19:24:53.610Z,17.76
2022-09-12T19:29:54.990Z,17.60
2022-09-12T19:34:56.278Z,17.53
2022-09-12T19:39:57.680Z,17.36
2022-09-12T19:44:59.438Z,17.31
2022-09-12T19:50:00.970Z,17.15
2022-09-12T19:55:04.705Z,17.05
2022-09-12T20:00:09.650Z,16.90
2022-09-12T20:05:10.992Z,16.79
2022-09-12T20:10:12.990Z,16.80
2022-09-12T20:15:14.338Z,16.74
2022-09-12T20:20:15.671Z,16.66
2022-09-12T20:25:17.399Z,16.67
2022-09-12T20:30:18.715Z,16.55
2022-09-12T20:35:20.089Z,16.54
2022-09-12T20:40:21.482Z,16.59
2022-09-12T20:45:22.855Z,16.37
2022-09-12T20:50:24.173Z,16.31
2022-09-12T20:55:26.482Z,16.31
2022-09-12T21:00:28.477Z,16.24
2022-09-12T21:05:29.943Z,16.06
2022-09-12T21:10:31.975Z,16.02
2022-09-12T21:15:33.276Z,16.06
2022-09-12T21:20:34.973Z,16.01
2022-09-12T21:25:36.288Z,16.01
2022-09-12T21:30:37.644Z,16.04
2022-09-12T21:35:39.063Z,16.08
2022-09-12T21:40:40.418Z,16.05
2022-09-12T21:45:41.825Z,16.10
2022-09-12T21:50:43.287Z,15.99
2022-09-12T21:55:44.631Z,16.00
2022-09-12T22:00:46.044Z,16.01
2022-09-12T22:05:50.761Z,16.01
2022-09-12T22:10:52.070Z,16.01
2022-09-12T22:15:53.691Z,16.05
2022-09-12T22:20:58.612Z,16.14
2022-09-12T22:26:01.435Z,16.20
2022-09-12T22:31:02.720Z,16.16
2022-09-12T22:36:04.432Z,16.22
2022-09-12T22:41:07.055Z,16.25
2022-09-12T22:46:09.666Z,16.33
2022-09-12T22:51:11.078Z,16.34
2022-09-12T22:56:12.420Z,16.34
2022-09-12T23:01:14.068Z,16.33
2022-09-12T23:06:15.754Z,16.30
2022-09-12T23:11:20.828Z,16.27
2022-09-12T23:16:23.395Z,16.25
2022-09-12T23:21:24.851Z,16.16
2022-09-12T23:26:29.623Z,16.18
2022-09-12T23:31:32.216Z,16.21
2022-09-12T23:36:34.270Z,16.23
2022-09-12T23:41:35.646Z,16.27
2022-09-12T23:46:36.965Z,16.20
2022-09-12T23:51:38.315Z,16.12
2022-09-12T23:56:39.708Z,16.12
